ADDS METAR Data INFO
IDs: Format: Raw Decoded Include TAF

Data at: 2345 UTC 15 Dec 2017

KBWW 152335Z AUTO 28012KT 10SM CLR 04/M05 A2952 RMK AO2
KBWW 152315Z AUTO 28013KT 10SM CLR 05/M06 A2951 RMK AO2
KBWW 152255Z AUTO 27014KT 10SM CLR 05/M05 A2950 RMK AO2
KBWW 152235Z AUTO 26013KT 10SM CLR 05/M05 A2950 RMK AO2
KBWW 152215Z AUTO 27015KT 10SM CLR 06/M05 A2950 RMK AO2
KBWW 152155Z AUTO 27013KT 10SM CLR 06/M05 A2950 RMK AO2
KBWW 152135Z AUTO 27015KT 10SM CLR 07/M05 A2951 RMK AO2
KBWW 152115Z AUTO 28012KT 10SM CLR 07/M05 A2951 RMK AO2
KBWW 152055Z AUTO 27013KT 10SM CLR 07/M05 A2952 RMK AO2
KBWW 152035Z AUTO 29015KT 10SM CLR 08/M05 A2953 RMK AO2
KBWW 152015Z AUTO 29017KT 10SM CLR 08/M05 A2953 RMK AO2
KBWW 151955Z AUTO 29015G21KT 10SM CLR 08/M04 A2954 RMK AO2
KBWW 151935Z AUTO 29018G25KT 10SM CLR 08/M04 A2954 RMK AO2
KBWW 151915Z AUTO 28018G24KT 10SM CLR 07/M03 A2955 RMK AO2
KBWW 151855Z AUTO 27018G24KT 10SM CLR 06/M03 A2955 RMK AO2
KBWW 151835Z AUTO 28017G23KT 10SM CLR 05/M03 A2955 RMK AO2
KBWW 151815Z AUTO 27018KT 10SM CLR 04/M04 A2957 RMK AO2
KBWW 151755Z AUTO 27016KT 10SM CLR 04/M04 A2959 RMK AO2
KBWW 151735Z AUTO 27016KT 10SM CLR 04/M04 A2960 RMK AO2
KBWW 151715Z AUTO 27015KT 10SM CLR 03/M04 A2961 RMK AO2
KBWW 151655Z AUTO 28016KT 10SM CLR 02/M05 A2961 RMK AO2
KBWW 151635Z AUTO 19.16666719KT 10SM CLR 02/M05 A2960 RMK AO2
KBWW 151615Z AUTO 28015KT 10SM CLR 02/M05 A2961 RMK AO2
KBWW 151555Z AUTO 26014KT 10SM CLR 01/M05 A2961 RMK AO2
KBWW 151535Z AUTO 26013KT 10SM CLR 00/M05 A2962 RMK AO2
KBWW 151515Z AUTO 25012KT 10SM CLR M00/M05 A2962 RMK AO2
KBWW 151455Z AUTO 25013KT 10SM CLR M00/M05 A2963 RMK AO2
KBWW 151435Z AUTO 26016G21KT 10SM CLR 00/M05 A2963 RMK AO2
KBWW 151415Z AUTO 26014KT 10SM CLR M01/M05 A2964 RMK AO2
KBWW 151355Z AUTO 26013KT 10SM SCT120 M01/M05 A2963 RMK AO2
KBWW 151335Z AUTO 26013KT 10SM BKN120 M01/M05 A2965 RMK AO2
KBWW 151315Z AUTO 25014KT 10SM CLR M01/M05 A2966 RMK AO2
KBWW 151255Z AUTO 26015KT 10SM FEW110 M01/M05 A2966 RMK AO2
KBWW 151235Z AUTO 25014KT 10SM SCT110 M02/M06 A2967 RMK AO2
KBWW 151215Z AUTO 24013KT 10SM FEW100 M03/M06 A2968 RMK AO2
KBWW 151155Z AUTO 24013KT 10SM OVC100 M04/M06 A2969 RMK AO2
KBWW 151135Z AUTO 24009KT 10SM BKN110 M03/M06 A2970 RMK AO2
KBWW 151115Z AUTO 26009KT 10SM BKN120 M03/M06 A2973 RMK AO2
KBWW 151055Z AUTO 25010KT 10SM FEW120 M03/M06 A2973 RMK AO2
KBWW 151035Z AUTO 25010KT 10SM CLR M03/M06 A2974 RMK AO2
KBWW 151015Z AUTO 24014KT 10SM CLR M04/M06 A2974 RMK AO2
KBWW 150955Z AUTO 24014KT 10SM FEW110 M04/M06 A2974 RMK AO2
KBWW 150935Z AUTO 24012KT 10SM BKN110 M04/M06 A2976 RMK AO2
KBWW 150915Z AUTO 23014KT 10SM BKN110 M03/M06 A2978 RMK AO2
KBWW 150855Z AUTO 25010KT 10SM FEW120 M03/M05 A2980 RMK AO2
KBWW 150835Z AUTO 25011KT 10SM CLR M04/M06 A2981 RMK AO2
KBWW 150815Z AUTO 26010KT 10SM CLR M04/M06 A2982 RMK AO2
KBWW 150755Z AUTO 26012KT 10SM CLR M03/M06 A2983 RMK AO2
KBWW 150735Z AUTO 25013KT 10SM CLR M04/M06 A2984 RMK AO2
KBWW 150715Z AUTO 25012KT 10SM CLR M03/M05 A2984 RMK AO2
KBWW 150655Z AUTO 28012KT 10SM CLR M03/M05 A2986 RMK AO2
KBWW 150635Z AUTO 27007G15KT 10SM CLR M03/M06 A2989 RMK AO2
KBWW 150615Z AUTO 28010KT 10SM CLR M04/M07 A2990 RMK AO2
KBWW 150555Z AUTO 26009G14KT 10SM CLR M04/M07 A2990 RMK AO2
KBWW 150535Z AUTO 26006G13KT 10SM CLR M05/M07 A2991 RMK AO2
KBWW 150515Z AUTO 29009KT 10SM CLR M05/M07 A2991 RMK AO2
KBWW 150455Z AUTO 29010KT 10SM CLR M05/M07 A2991 RMK AO2
KBWW 150435Z AUTO 28012KT 10SM CLR M05/M07 A2992 RMK AO2
KBWW 150415Z AUTO 28013KT 10SM CLR M04/M07 A2993 RMK AO2
KBWW 150355Z AUTO 27010KT 10SM CLR M05/M07 A2993 RMK AO2
KBWW 150335Z AUTO 27011KT 10SM CLR M06/M07 A2993 RMK AO2
KBWW 150315Z AUTO 26007KT 10SM CLR M06/M08 A2996 RMK AO2
KBWW 150255Z AUTO 28010KT 10SM CLR M06/M08 A2996 RMK AO2
KBWW 150235Z AUTO 27010KT 10SM CLR M06/M07 A2998 RMK AO2
KBWW 150215Z AUTO 27009KT 10SM CLR M05/M07 A2998 RMK AO2
KBWW 150155Z AUTO 28010KT 10SM CLR M04/M06 A2999 RMK AO2
KBWW 150135Z AUTO 27011KT 10SM CLR M04/M06 A3000 RMK AO2
KBWW 150115Z AUTO 28009KT 10SM CLR M05/M06 A3000 RMK AO2
KBWW 150055Z AUTO 26008KT 10SM CLR M04/M06 A3000 RMK AO2
KBWW 150035Z AUTO 27010KT 10SM FEW030 M03/M05 A3000 RMK AO2
KBWW 150015Z AUTO 28011KT 10SM CLR M02/M05 A3001 RMK AO2
KBWW 142355Z AUTO 28012KT 10SM CLR M02/M04 A3002 RMK AO2
KBWW 142335Z AUTO 28012KT 10SM SCT030 SCT035 M02/M04 A3002 RMK AO2
KBWW 142315Z AUTO 28009KT 10SM SCT030 OVC036 M01/M04 A3003 RMK AO2
KBWW 142255Z AUTO 29006KT 10SM FEW029 BKN035 M01/M04 A3004 RMK AO2
KBWW 142235Z AUTO 30009KT 10SM BKN028 BKN035 M00/M03 A3004 RMK AO2
KBWW 142215Z AUTO 32012KT 10SM BKN030 BKN036 M01/M03 A3004 RMK AO2
KBWW 142155Z AUTO 31016KT 10SM FEW023 BKN032 OVC037 00/M03 A3004 RMK AO2
KBWW 142135Z AUTO 32013G18KT 10SM SCT018 SCT023 OVC034 00/M03 A3005 RMK AO2
KBWW 142115Z AUTO 32017KT 10SM BKN018 BKN029 OVC034 00/M03 A3005 RMK AO2
KBWW 142055Z AUTO 32015KT 10SM SCT019 SCT024 OVC030 00/M03 A3006 RMK AO2
KBWW 142035Z AUTO 32013G18KT 10SM SCT015 BKN021 OVC049 00/M02 A3005 RMK AO2
KBWW 142015Z AUTO 33013G19KT 10SM BKN014 BKN021 OVC049 M00/M02 A3006 RMK AO2
KBWW 141955Z AUTO 32016KT 8SM -UP BKN013 OVC019 M00/M02 A3007 RMK AO2
KBWW 141935Z AUTO 33013KT 9SM SCT013 BKN017 OVC050 M00/M02 A3007 RMK AO2
KBWW 141915Z AUTO 33012KT 10SM -UP SCT015 BKN019 OVC050 M00/M03 A3008 RMK AO2
KBWW 141855Z AUTO 33015G22KT 10SM -UP SCT015 BKN027 OVC055 M00/M03 A3008 RMK AO2
KBWW 141835Z AUTO 34017KT 10SM SCT016 BKN022 OVC033 M00/M03 A3008 RMK AO2
KBWW 141815Z AUTO 35015G23KT 10SM OVC017 M00/M03 A3009 RMK AO2
KBWW 141755Z AUTO 34018G24KT 10SM FEW014 SCT019 BKN024 M00/M03 A3008 RMK AO2
KBWW 141735Z AUTO 34019G28KT 10SM FEW012 SCT020 BKN027 M00/M03 A3008 RMK AO2
KBWW 141715Z AUTO 34017KT 10SM SCT009 BKN013 OVC023 M00/M02 A3008 RMK AO2
KBWW 141655Z AUTO 34015G21KT 7SM BKN008 BKN013 OVC020 M01/M02 A3007 RMK AO2
KBWW 141635Z AUTO 34015KT 10SM BKN008 BKN013 OVC034 M01/M02 A3007 RMK AO2
KBWW 141615Z AUTO 33018KT 8SM -SN SCT007 BKN021 OVC034 M01/M02 A3005 RMK AO2
KBWW 141555Z AUTO 34021G27KT 8SM OVC007 M01/M02 A3005 RMK AO2
KBWW 141535Z AUTO 34018G26KT 3SM -SN OVC009 M01/M02 A3004 RMK AO2
KBWW 141515Z AUTO 33020KT 7SM -SN OVC009 M01/M02 A3003 RMK AO2
KBWW 141455Z AUTO 33019G26KT 2 1/2SM -SN OVC008 M01/M02 A3002 RMK AO2
KBWW 141435Z AUTO 33021KT 10SM OVC008 M01/M02 A3001 RMK AO2
KBWW 141415Z AUTO 33023G29KT 10SM -UP OVC008 M01/M02 A3001 RMK AO2
KBWW 141355Z AUTO 33022G28KT 10SM -UP OVC009 M01/M02 A3000 RMK AO2
KBWW 141335Z AUTO 33023G29KT 10SM -UP OVC010 M01/M02 A3000 RMK AO2
KBWW 141315Z AUTO 33020G27KT 10SM BKN011 BKN016 OVC038 M01/M02 A2999 RMK AO2
KBWW 141255Z AUTO 32021G27KT 10SM SCT012 BKN020 OVC038 M01/M02 A2998 RMK AO2
KBWW 141235Z AUTO 32019G26KT 10SM BKN013 OVC021 M01/M02 A2997 RMK AO2
KBWW 141215Z AUTO 32021G26KT 10SM BKN012 OVC019 M00/M02 A2996 RMK AO2
KBWW 141155Z AUTO 33021G27KT 10SM OVC011 M00/M02 A2996 RMK AO2